Air Navigation Services of Czech Republic
Airport: LKTB Updated:  24.07.2021 08:00:29  UTC
 METAR LKTB 24.07. 08:00 ...
METAR LKTB 240800Z 09005KT 050V140 CAVOK 24/13 Q1015 NOSIG RMK REG QNH 1012=
 TAF LKTB 24.07. 05:00 ...
TAF LKTB 240500Z 2406/2512 33006KT CAVOK      BECMG 2408/2410 12006KT      BECMG 2500/2502 22008KT 9999 SCT040      TEMPO 2502/2512 7000 SHRA SCT040TCU      PROB30 TEMPO 2502/2512 4000 TSRA SCT030CB=